Time;durP1;ratioP1;P1;durP2;ratioP2;P2;SDS_P1;SDS_P2;PMS_P1;PMS_P2;Temp;Humidity;BMP_temperature;BMP_pressure;BME280_temperature;BME280_humidity;BME280_pressure;Samples;Min_cycle;Max_cycle;Signal;HPM_P1;HPM_P2
2021/11/15 00:01:16;;;;;;;;;;;;;;;19.29;64.46;101813.59;5080199;28;3013;-38
2021/11/15 00:03:43;;;;;;;;;;;;;;;18.91;65.07;101817.22;5077332;28;1624;-37
2021/11/15 00:06:10;;;;;;;;;;;;;;;18.71;65.74;101826.66;5081058;28;1065;-38
2021/11/15 00:08:38;;;;;;;;;;;;;;;19.40;63.10;101821.72;5080227;28;1051;-38
2021/11/15 00:11:04;;;;;;;;;;;;;;;19.91;62.79;101825.19;5088465;28;1790;-37
2021/11/15 00:13:30;;;;;;;;;;;;;;;19.32;62.85;101824.13;5090014;28;1960;-38
2021/11/15 00:15:57;;;;;;;;;;;;;;;18.91;64.37;101833.31;5085662;28;1709;-38
2021/11/15 00:18:23;;;;;;;;;;;;;;;18.71;64.92;101834.69;5081264;28;1889;-38
2021/11/15 00:20:50;;;;;;;;;;;;;;;19.19;64.28;101834.00;5080998;28;1504;-38
2021/11/15 00:23:17;;;;;;;;;;;;;;;19.83;62.52;101828.44;5081659;28;1643;-38
2021/11/15 00:25:45;;;;;;;;;;;;;;;19.42;62.72;101845.75;5080457;28;1492;-38
2021/11/15 00:28:11;;;;;;;;;;;;;;;19.00;63.72;101846.06;5084670;28;1525;-38
2021/11/15 00:30:38;;;;;;;;;;;;;;;18.73;64.84;101834.59;5080766;28;1038;-37
2021/11/15 00:33:04;;;;;;;;;;;;;;;18.97;63.78;101842.75;5087380;28;2076;-38
2021/11/15 00:35:31;;;;;;;;;;;;;;;19.62;62.68;101845.16;5078786;28;1582;-38
2021/11/15 00:37:57;;;;;;;;;;;;;;;19.36;62.14;101847.06;5080277;28;1985;-37
2021/11/15 00:40:24;;;;;;;;;;;;;;;19.00;63.33;101840.69;5089687;28;1797;-38
2021/11/15 00:42:52;;;;;;;;;;;;;;;18.76;64.48;101845.06;5070969;28;1211;-38
2021/11/15 00:45:18;;;;;;;;;;;;;;;18.75;64.38;101846.03;5078171;28;1997;-38
2021/11/15 00:47:45;;;;;;;;;;;;;;;19.64;60.87;101845.03;5079624;28;1716;-39
2021/11/15 00:50:13;;;;;;;;;;;;;;;19.48;62.33;101851.53;5080896;28;1599;-38
2021/11/15 00:52:40;;;;;;;;;;;;;;;19.05;63.03;101853.78;5082259;28;1972;-37
2021/11/15 00:55:07;;;;;;;;;;;;;;;18.72;63.86;101854.28;5087737;28;1077;-38
2021/11/15 00:57:33;;;;;;;;;;;;;;;18.84;62.92;101856.13;5078302;28;1664;-38
2021/11/15 01:00:01;;;;;;;;;;;;;;;19.68;61.36;101874.22;5087567;28;1909;-38
2021/11/15 01:02:28;;;;;;;;;;;;;;;19.51;61.17;101866.53;5081081;28;1668;-38
2021/11/15 01:04:55;;;;;;;;;;;;;;;19.10;62.37;101867.72;5080399;28;1586;-38
2021/11/15 01:07:21;;;;;;;;;;;;;;;18.78;63.08;101856.53;5080161;28;1512;-38
2021/11/15 01:09:48;;;;;;;;;;;;;;;18.85;62.84;101853.34;5083245;28;1076;-38
2021/11/15 01:12:14;;;;;;;;;;;;;;;19.81;60.84;101860.75;5089061;28;1989;-38
2021/11/15 01:14:41;;;;;;;;;;;;;;;19.44;61.41;101849.19;5072527;28;1765;-38
2021/11/15 01:17:08;;;;;;;;;;;;;;;19.08;61.79;101853.56;5076374;28;1554;-38
2021/11/15 01:19:35;;;;;;;;;;;;;;;18.75;63.24;101849.56;5078095;28;2134;-38
2021/11/15 01:22:01;;;;;;;;;;;;;;;18.90;62.49;101855.72;5086802;28;1516;-38
2021/11/15 01:24:28;;;;;;;;;;;;;;;19.76;59.65;101854.03;5075488;28;1551;-38
2021/11/15 01:26:54;;;;;;;;;;;;;;;19.56;59.95;101852.81;5081273;28;1433;-38
2021/11/15 01:29:21;;;;;;;;;;;;;;;19.02;61.55;101857.53;5080147;28;1881;-37
2021/11/15 01:31:47;;;;;;;;;;;;;;;18.79;63.71;101864.50;5079935;28;1909;-38
2021/11/15 01:34:15;;;;;;;;;;;;;;;18.90;62.23;101844.13;5083892;28;1751;-38
2021/11/15 01:36:41;;;;;;;;;;;;;;;19.89;59.89;101857.50;5078206;28;1586;-38
2021/11/15 01:39:08;;;;;;;;;;;;;;;19.64;60.16;101863.81;5081844;28;1092;-38
2021/11/15 01:41:35;;;;;;;;;;;;;;;19.12;62.25;101871.16;5085503;28;1887;-37
2021/11/15 01:44:01;;;;;;;;;;;;;;;18.78;62.29;101867.25;5079385;28;2310;-38
2021/11/15 01:46:28;;;;;;;;;;;;;;;18.96;61.74;101876.75;5077729;28;1510;-37
2021/11/15 01:48:54;;;;;;;;;;;;;;;19.66;60.50;101869.94;5077857;28;1649;-38
2021/11/15 01:51:22;;;;;;;;;;;;;;;19.44;61.25;101868.81;5082307;28;1721;-38
2021/11/15 01:53:49;;;;;;;;;;;;;;;19.02;61.75;101878.97;5079314;28;1914;-38
2021/11/15 01:56:15;;;;;;;;;;;;;;;18.73;62.23;101874.78;5086490;28;2086;-38
2021/11/15 01:58:42;;;;;;;;;;;;;;;19.15;60.81;101870.06;5077745;28;2274;-37
2021/11/15 02:01:09;;;;;;;;;;;;;;;19.77;58.80;101883.44;5078158;28;2348;-38
2021/11/15 02:03:35;;;;;;;;;;;;;;;19.55;60.02;101868.03;5085348;28;1652;-37
2021/11/15 02:06:02;;;;;;;;;;;;;;;19.07;61.61;101879.50;5087007;28;1643;-38
2021/11/15 02:08:30;;;;;;;;;;;;;;;18.70;62.18;101865.09;5077597;28;1525;-38
2021/11/15 02:10:57;;;;;;;;;;;;;;;19.26;59.79;101887.09;5086674;28;1910;-37
2021/11/15 02:13:24;;;;;;;;;;;;;;;19.95;58.80;101864.25;5081240;28;1914;-37
2021/11/15 02:15:52;;;;;;;;;;;;;;;19.46;60.13;101872.25;5084104;28;1833;-37
2021/11/15 02:18:18;;;;;;;;;;;;;;;18.98;61.15;101874.81;5076705;28;2245;-38
2021/11/15 02:20:48;;;;;;;;;;;;;;;18.72;61.89;101865.00;5077814;28;1582;-38
2021/11/15 02:23:15;;;;;;;;;;;;;;;19.07;60.89;101863.41;5077230;28;1604;-38
2021/11/15 02:25:42;;;;;;;;;;;;;;;19.89;58.85;101862.88;5078836;28;1718;-38
2021/11/15 02:28:08;;;;;;;;;;;;;;;19.50;59.44;101870.19;5077843;28;1539;-38
2021/11/15 02:30:35;;;;;;;;;;;;;;;19.05;60.80;101862.66;5080890;28;1013;-37
2021/11/15 02:33:02;;;;;;;;;;;;;;;18.74;61.64;101858.59;5079933;28;2000;-38
2021/11/15 02:35:28;;;;;;;;;;;;;;;19.06;60.37;101869.75;5083478;28;1715;-38
2021/11/15 02:37:56;;;;;;;;;;;;;;;19.83;58.32;101861.50;5081229;28;1719;-38
2021/11/15 02:40:25;;;;;;;;;;;;;;;19.49;59.05;101879.22;5078609;28;1536;-38
2021/11/15 02:42:52;;;;;;;;;;;;;;;19.04;61.06;101885.09;5080782;28;1077;-38
2021/11/15 02:45:19;;;;;;;;;;;;;;;18.77;60.57;101885.16;5075938;28;1845;-38
2021/11/15 02:47:45;;;;;;;;;;;;;;;19.24;60.10;101880.13;5077472;28;1576;-38
2021/11/15 02:50:13;;;;;;;;;;;;;;;19.94;57.19;101879.50;5085264;28;1858;-38
2021/11/15 02:52:41;;;;;;;;;;;;;;;19.50;58.23;101878.25;5076692;28;1980;-38
2021/11/15 02:55:09;;;;;;;;;;;;;;;18.99;59.88;101876.50;5085760;28;1150;-38
2021/11/15 02:57:36;;;;;;;;;;;;;;;18.77;60.53;101878.94;5082049;28;1906;-37
2021/11/15 03:02:53;;;;;;;;;;;;;;;19.90;58.38;101878.03;5081421;22;1690;-38
2021/11/15 03:05:23;;;;;;;;;;;;;;;19.25;59.80;101888.06;5059913;28;1839;-38
2021/11/15 03:07:50;;;;;;;;;;;;;;;18.86;61.19;101881.00;5072115;28;1517;-38
2021/11/15 03:10:18;;;;;;;;;;;;;;;18.68;61.41;101875.06;5064121;28;1142;-37
2021/11/15 03:12:46;;;;;;;;;;;;;;;19.58;57.90;101880.38;5065713;28;1953;-38
2021/11/15 03:15:29;;;;;;;;;;;;;;;19.71;57.69;101866.91;5070427;28;1505;-38
2021/11/15 03:18:07;;;;;;;;;;;;;;;19.10;60.10;101873.09;5069012;28;1600;-38
2021/11/15 03:20:37;;;;;;;;;;;;;;;18.76;60.80;101891.50;5070855;28;1842;-38
2021/11/15 03:23:05;;;;;;;;;;;;;;;19.03;59.84;101882.50;5067144;28;1744;-38
2021/11/15 03:25:36;;;;;;;;;;;;;;;19.74;57.90;101894.41;5062273;28;994;-37
2021/11/15 03:28:05;;;;;;;;;;;;;;;19.53;58.48;101883.38;5061076;28;1530;-38
2021/11/15 03:30:39;;;;;;;;;;;;;;;19.04;59.10;101884.25;5061089;28;1490;-38
2021/11/15 03:33:06;;;;;;;;;;;;;;;18.73;60.47;101885.50;5060734;28;1948;-37
2021/11/15 03:35:33;;;;;;;;;;;;;;;19.25;59.52;101889.88;5061540;28;1687;-38
2021/11/15 03:37:59;;;;;;;;;;;;;;;19.97;56.53;101889.16;5062893;28;1462;-38
2021/11/15 03:40:26;;;;;;;;;;;;;;;19.48;58.96;101893.59;5069200;28;1450;-38
2021/11/15 03:42:59;;;;;;;;;;;;;;;19.03;59.08;101899.44;5058279;28;1015;-38
2021/11/15 03:45:34;;;;;;;;;;;;;;;18.72;60.47;101889.13;5068658;28;1941;-38
2021/11/15 03:48:11;;;;;;;;;;;;;;;18.94;59.33;101892.06;5059219;28;2230;-37
2021/11/15 03:50:38;;;;;;;;;;;;;;;19.36;58.53;101884.63;5057775;28;1841;-38
2021/11/15 03:53:14;;;;;;;;;;;;;;;18.96;59.62;101884.78;5063751;28;1973;-37
2021/11/15 03:55:41;;;;;;;;;;;;;;;18.73;61.64;101874.78;5070832;28;1611;-38
2021/11/15 03:58:09;;;;;;;;;;;;;;;18.62;61.41;101883.53;5070718;28;1083;-38
2021/11/15 04:00:38;;;;;;;;;;;;;;;19.07;60.91;101884.00;5061126;28;1495;-37
2021/11/15 04:03:16;;;;;;;;;;;;;;;19.27;59.93;101888.78;5059015;28;1966;-38
2021/11/15 04:05:45;;;;;;;;;;;;;;;18.90;60.94;101882.53;5057725;28;1733;-37
2021/11/15 04:08:12;;;;;;;;;;;;;;;18.63;61.98;101883.44;5060483;28;1820;-37
2021/11/15 04:10:41;;;;;;;;;;;;;;;18.71;62.05;101887.41;5069672;28;1561;-38
2021/11/15 04:13:12;;;;;;;;;;;;;;;19.10;60.67;101880.25;5068131;28;1985;-37
2021/11/15 04:15:41;;;;;;;;;;;;;;;19.01;61.33;101882.63;5065013;28;1513;-37
2021/11/15 04:18:09;;;;;;;;;;;;;;;18.80;61.41;101892.16;5068255;28;1635;-38
2021/11/15 04:20:44;;;;;;;;;;;;;;;18.58;61.92;101877.56;5068440;28;1624;-38
2021/11/15 04:23:10;;;;;;;;;;;;;;;18.82;61.24;101883.06;5060381;28;1533;-37
2021/11/15 04:25:37;;;;;;;;;;;;;;;19.26;60.19;101883.56;5066702;28;1582;-38
2021/11/15 04:28:04;;;;;;;;;;;;;;;18.96;61.29;101894.63;5060457;28;1537;-38
2021/11/15 04:33:15;;;;;;;;;;;;;;;18.56;63.23;101892.88;5064087;28;2644;-37
2021/11/15 04:35:41;;;;;;;;;;;;;;;18.95;62.01;101906.31;5065143;28;1539;-37
2021/11/15 04:38:08;;;;;;;;;;;;;;;19.23;61.56;101900.72;5065647;28;1489;-38
2021/11/15 04:40:36;;;;;;;;;;;;;;;18.85;62.18;101900.75;5066529;28;1540;-37
2021/11/15 04:43:03;;;;;;;;;;;;;;;18.64;63.01;101909.28;5055203;28;1948;-39
2021/11/15 04:45:36;;;;;;;;;;;;;;;18.63;62.17;101907.56;5062616;28;993;-38
2021/11/15 04:48:09;;;;;;;;;;;;;;;19.11;61.39;101914.16;5065846;28;1902;-37
2021/11/15 04:50:35;;;;;;;;;;;;;;;18.98;61.65;101901.63;5060555;28;1974;-38
2021/11/15 04:53:03;;;;;;;;;;;;;;;18.78;62.11;101894.06;5064520;28;1906;-38
2021/11/15 04:55:37;;;;;;;;;;;;;;;18.57;63.11;101916.00;5069099;28;1504;-37
2021/11/15 04:58:09;;;;;;;;;;;;;;;18.87;61.83;101904.16;5058106;28;1085;-38
2021/11/15 05:00:46;;;;;;;;;;;;;;;19.25;60.57;101919.38;5063647;28;1739;-38
2021/11/15 05:03:21;;;;;;;;;;;;;;;18.86;61.96;101910.47;5069020;28;1813;-37
2021/11/15 05:05:48;;;;;;;;;;;;;;;18.72;63.48;101929.31;5062912;28;1497;-38
2021/11/15 05:08:17;;;;;;;;;;;;;;;18.62;63.48;101946.03;5029651;28;11149;-38
2021/11/15 05:10:43;;;;;;;;;;;;;;;19.15;61.54;101937.94;5078026;28;1532;-38
2021/11/15 05:13:10;;;;;;;;;;;;;;;19.32;62.44;101934.09;5077853;28;1910;-38
2021/11/15 05:15:40;;;;;;;;;;;;;;;19.09;63.52;101941.06;5083356;28;1557;-38
2021/11/15 05:18:07;;;;;;;;;;;;;;;18.87;63.12;101952.41;5087922;28;1641;-38
2021/11/15 05:20:43;;;;;;;;;;;;;;;18.66;65.72;101960.94;5077426;28;1545;-38
2021/11/15 05:23:10;;;;;;;;;;;;;;;18.61;64.97;101955.03;5077256;28;1486;-37
2021/11/15 05:25:38;;;;;;;;;;;;;;;18.43;63.73;101964.31;5067116;28;1670;-37
2021/11/15 05:28:25;;;;;;;;;;;;;;;18.65;65.87;101963.72;5077104;28;1668;-38
2021/11/15 05:30:55;;;;;;;;;;;;;;;18.80;66.36;101977.91;5075682;28;1506;-38
2021/11/15 05:33:22;;;;;;;;;;;;;;;18.74;66.42;101973.81;5077589;28;1902;-39
2021/11/15 05:35:51;;;;;;;;;;;;;;;18.65;65.48;101980.63;5079871;28;1441;-37
2021/11/15 05:38:23;;;;;;;;;;;;;;;18.86;65.51;101986.41;5075126;28;1548;-38
2021/11/15 05:40:50;;;;;;;;;;;;;;;19.25;63.82;101967.66;5086750;28;1520;-38
2021/11/15 05:43:16;;;;;;;;;;;;;;;18.94;65.46;101983.22;5089298;28;1599;-38
2021/11/15 05:45:42;;;;;;;;;;;;;;;18.68;65.54;101988.50;5089964;28;1473;-38
2021/11/15 05:48:10;;;;;;;;;;;;;;;18.96;64.86;101989.31;5087612;28;1015;-38
2021/11/15 05:50:40;;;;;;;;;;;;;;;19.32;63.62;101990.41;5084217;28;1686;-38
2021/11/15 05:53:07;;;;;;;;;;;;;;;18.86;65.42;101993.56;5083781;28;1965;-38
2021/11/15 05:55:43;;;;;;;;;;;;;;;18.63;66.04;101987.91;5087990;28;1640;-38
2021/11/15 05:58:19;;;;;;;;;;;;;;;19.02;64.42;101993.38;5085739;28;1545;-38
2021/11/15 06:00:45;;;;;;;;;;;;;;;18.81;65.57;102006.44;5073099;28;1019;-38
2021/11/15 06:03:15;;;;;;;;;;;;;;;18.68;65.62;102012.59;5082732;28;1676;-38
2021/11/15 06:05:42;;;;;;;;;;;;;;;18.83;65.79;102005.38;5087469;28;1504;-38
2021/11/15 06:08:08;;;;;;;;;;;;;;;19.15;64.13;102004.13;5089245;28;1670;-38
2021/11/15 06:10:35;;;;;;;;;;;;;;;18.86;65.47;102025.72;5087512;28;1673;-38
2021/11/15 06:13:06;;;;;;;;;;;;;;;18.69;65.48;102030.38;5074829;28;1036;-37
2021/11/15 06:15:33;;;;;;;;;;;;;;;18.97;64.85;102025.03;5086281;28;1902;-38
2021/11/15 06:18:02;;;;;;;;;;;;;;;19.21;64.90;102023.31;5085617;28;1629;-37
2021/11/15 06:20:30;;;;;;;;;;;;;;;18.80;65.38;102027.03;5076384;28;1559;-38
2021/11/15 06:22:56;;;;;;;;;;;;;;;18.62;66.25;102033.56;5078983;28;1525;-38
2021/11/15 06:25:25;;;;;;;;;;;;;;;19.03;64.85;102038.00;5079586;28;2141;-38
2021/11/15 06:27:58;;;;;;;;;;;;;;;19.13;63.98;102031.03;5073217;28;1014;-38
2021/11/15 06:30:26;;;;;;;;;;;;;;;18.74;66.35;102034.56;5079513;28;1860;-37
2021/11/15 06:32:53;;;;;;;;;;;;;;;18.77;65.88;102037.06;5079162;28;1536;-38
2021/11/15 06:35:20;;;;;;;;;;;;;;;19.06;64.34;102033.28;5084042;28;2031;-38
2021/11/15 06:37:48;;;;;;;;;;;;;;;18.76;65.58;102040.69;5086389;28;1545;-38
2021/11/15 06:40:16;;;;;;;;;;;;;;;18.69;66.06;102038.41;5092011;28;1181;-38
2021/11/15 06:42:45;;;;;;;;;;;;;;;18.88;64.42;102043.44;5083751;28;1866;-37
2021/11/15 06:45:12;;;;;;;;;;;;;;;19.22;63.85;102029.56;5088489;28;2005;-38
2021/11/15 06:47:40;;;;;;;;;;;;;;;18.88;65.00;102045.28;5091665;28;1651;-38
2021/11/15 06:50:08;;;;;;;;;;;;;;;18.67;65.36;102059.09;5080647;28;1539;-38
2021/11/15 06:52:34;;;;;;;;;;;;;;;19.07;64.24;102053.75;5083448;28;1484;-38
2021/11/15 06:55:09;;;;;;;;;;;;;;;19.17;65.05;102066.56;5088776;28;1933;-37
2021/11/15 06:57:40;;;;;;;;;;;;;;;18.82;65.78;102061.75;5084982;28;1493;-38
2021/11/15 07:00:10;;;;;;;;;;;;;;;18.80;65.38;102061.88;5086143;28;2048;-38
2021/11/15 07:02:36;;;;;;;;;;;;;;;19.14;63.83;102061.38;5085462;28;1728;-38
2021/11/15 07:05:10;;;;;;;;;;;;;;;18.80;66.25;102071.69;5085254;28;1562;-38
2021/11/15 07:07:37;;;;;;;;;;;;;;;18.65;66.07;102071.75;5086094;28;1524;-38
2021/11/15 07:10:05;;;;;;;;;;;;;;;18.90;64.66;102070.16;5094358;28;1077;-37
2021/11/15 07:12:32;;;;;;;;;;;;;;;19.21;63.96;102076.94;5084805;28;1612;-38
2021/11/15 07:15:02;;;;;;;;;;;;;;;18.88;65.57;102074.75;5091459;28;1981;-38
2021/11/15 07:17:29;;;;;;;;;;;;;;;18.62;65.99;102055.88;5079573;28;1718;-37
2021/11/15 07:19:56;;;;;;;;;;;;;;;19.03;64.72;102067.50;5089731;28;1643;-38
2021/11/15 07:22:22;;;;;;;;;;;;;;;19.14;65.10;102066.75;5087558;28;1070;-38
2021/11/15 07:27:30;;;;;;;;;;;;;;;18.78;65.37;102076.28;5080221;28;2517;-38
2021/11/15 07:29:59;;;;;;;;;;;;;;;19.17;63.87;102062.03;5081693;28;1949;-37
2021/11/15 07:32:26;;;;;;;;;;;;;;;18.91;64.70;102071.84;5080297;28;1500;-37
2021/11/15 07:34:56;;;;;;;;;;;;;;;18.81;65.41;102084.16;5082951;28;1984;-37
2021/11/15 07:37:23;;;;;;;;;;;;;;;19.21;64.08;102079.63;5085742;28;1544;-38
2021/11/15 07:39:51;;;;;;;;;;;;;;;19.53;63.79;102070.34;5091784;28;1640;-38
2021/11/15 07:42:19;;;;;;;;;;;;;;;19.26;64.73;102077.50;5090012;28;1698;-37
2021/11/15 07:44:47;;;;;;;;;;;;;;;19.02;65.36;102084.53;5089909;28;1505;-38
2021/11/15 07:47:15;;;;;;;;;;;;;;;19.43;63.93;102084.38;5084769;28;1858;-38
2021/11/15 07:49:41;;;;;;;;;;;;;;;19.50;63.70;102087.50;5085008;28;2030;-38
2021/11/15 07:52:08;;;;;;;;;;;;;;;19.27;64.56;102091.78;5078017;28;1655;-38
2021/11/15 07:54:37;;;;;;;;;;;;;;;19.04;65.31;102088.00;5087416;28;1995;-38
2021/11/15 07:57:06;;;;;;;;;;;;;;;19.43;64.35;102100.47;5087071;28;2300;-38
2021/11/15 07:59:32;;;;;;;;;;;;;;;19.44;63.79;102091.47;5088304;28;1755;-38
2021/11/15 08:02:02;;;;;;;;;;;;;;;19.26;64.95;102092.75;5089291;28;1842;-38
2021/11/15 08:04:29;;;;;;;;;;;;;;;19.13;65.42;102098.06;5083372;28;1593;-38
2021/11/15 08:06:57;;;;;;;;;;;;;;;19.50;63.84;102097.38;5087969;28;1595;-38
2021/11/15 08:09:26;;;;;;;;;;;;;;;19.54;64.86;102082.81;5092409;28;1188;-38
2021/11/15 08:11:56;;;;;;;;;;;;;;;19.27;64.85;102105.19;5091907;28;1615;-38
2021/11/15 08:14:26;;;;;;;;;;;;;;;19.14;65.52;102106.97;5092791;28;1907;-38
2021/11/15 08:16:56;;;;;;;;;;;;;;;19.57;63.86;102123.66;5076546;28;1551;-38
2021/11/15 08:19:30;;;;;;;;;;;;;;;19.37;64.28;102111.63;5081199;28;1928;-38
2021/11/15 08:21:59;;;;;;;;;;;;;;;19.10;66.10;102122.44;5081789;28;1717;-38
2021/11/15 08:24:52;;;;;;;;;;;;;;;19.32;66.91;102123.63;5086867;28;1496;-39
2021/11/15 08:27:18;;;;;;;;;;;;;;;19.88;64.86;102116.19;5046016;28;1890;-38
2021/11/15 08:29:45;;;;;;;;;;;;;;;19.52;64.49;102127.63;5079378;28;1583;-37
2021/11/15 08:32:16;;;;;;;;;;;;;;;19.14;65.52;102136.47;5087854;28;2398;-38
2021/11/15 08:34:44;;;;;;;;;;;;;;;19.43;65.14;102146.06;5083236;28;1910;-38
2021/11/15 08:37:13;;;;;;;;;;;;;;;19.76;63.44;102130.50;5084799;28;1632;-38
2021/11/15 08:39:45;;;;;;;;;;;;;;;19.44;64.44;102138.91;5092605;28;1497;-38
2021/11/15 08:42:11;;;;;;;;;;;;;;;19.09;65.56;102131.41;5090240;28;1520;-38
2021/11/15 08:44:41;;;;;;;;;;;;;;;19.41;64.17;102121.19;5073410;28;1767;-38
2021/11/15 08:47:13;;;;;;;;;;;;;;;19.70;64.26;102118.31;5079651;28;1593;-38
2021/11/15 08:49:43;;;;;;;;;;;;;;;19.35;64.41;102124.28;5084737;28;1579;-38
2021/11/15 08:52:11;;;;;;;;;;;;;;;19.21;65.71;102133.28;5091198;28;1723;-38
2021/11/15 08:54:39;;;;;;;;;;;;;;;19.45;65.30;102138.78;5092162;28;1979;-37
2021/11/15 08:57:14;;;;;;;;;;;;;;;19.53;64.92;102135.56;5079493;28;1548;-38
2021/11/15 08:59:44;;;;;;;;;;;;;;;19.28;65.57;102137.28;5083620;28;1572;-38
2021/11/15 09:02:10;;;;;;;;;;;;;;;19.12;66.12;102139.28;5084526;28;1847;-38
2021/11/15 09:04:37;;;;;;;;;;;;;;;19.35;65.24;102140.38;5085166;28;1513;-38
2021/11/15 09:07:04;;;;;;;;;;;;;;;19.39;64.95;102131.16;5089023;28;1534;-38
2021/11/15 09:09:33;;;;;;;;;;;;;;;19.27;64.89;102140.03;5089463;28;1676;-38
2021/11/15 09:12:02;;;;;;;;;;;;;;;19.18;65.31;102133.50;5085488;28;1607;-38
2021/11/15 09:14:30;;;;;;;;;;;;;;;19.42;64.23;102132.78;5088562;28;1887;-38
2021/11/15 09:16:57;;;;;;;;;;;;;;;19.42;65.15;102128.28;5078424;28;1640;-38
2021/11/15 09:19:27;;;;;;;;;;;;;;;19.37;65.41;102140.28;5086885;28;1458;-38
2021/11/15 09:21:58;;;;;;;;;;;;;;;19.27;65.49;102132.84;5083387;28;1832;-38
2021/11/15 09:24:31;;;;;;;;;;;;;;;19.64;64.68;102134.84;5081555;28;1717;-38
2021/11/15 09:27:02;;;;;;;;;;;;;;;19.57;64.10;102129.03;5081342;28;1434;-38
2021/11/15 09:29:29;;;;;;;;;;;;;;;19.33;64.03;102136.94;5081840;28;1505;-38
2021/11/15 09:31:55;;;;;;;;;;;;;;;19.34;64.52;102132.44;5085082;28;1571;-38
2021/11/15 09:34:25;;;;;;;;;;;;;;;19.68;64.36;102120.25;5079884;28;2309;-38
2021/11/15 09:36:52;;;;;;;;;;;;;;;19.55;64.35;102122.91;5081725;28;1602;-38
2021/11/15 09:39:23;;;;;;;;;;;;;;;19.35;64.59;102124.28;5079463;28;1544;-38
2021/11/15 09:41:49;;;;;;;;;;;;;;;19.38;65.24;102123.25;5085439;28;1810;-38
2021/11/15 09:44:18;;;;;;;;;;;;;;;19.68;63.16;102114.88;5087985;28;1481;-38
2021/11/15 09:46:46;;;;;;;;;;;;;;;19.57;63.49;102107.56;5084874;28;1627;-38
2021/11/15 09:49:13;;;;;;;;;;;;;;;19.26;64.82;102117.75;5080855;28;1719;-38
2021/11/15 09:54:24;;;;;;;;;;;;;;;19.78;63.73;102113.31;5086583;28;1988;-38
2021/11/15 09:59:36;;;;;;;;;;;;;;;19.11;63.77;102109.88;5093089;28;1749;-38
2021/11/15 10:02:07;;;;;;;;;;;;;;;19.22;64.69;102118.06;5081251;28;1635;-38
2021/11/15 10:04:34;;;;;;;;;;;;;;;19.48;62.34;102113.59;5086911;28;1548;-38
2021/11/15 10:07:03;;;;;;;;;;;;;;;19.14;64.17;102105.16;5078993;28;1648;-38
2021/11/15 10:09:32;;;;;;;;;;;;;;;19.07;64.84;102123.47;5090231;28;1224;-37
2021/11/15 10:12:00;;;;;;;;;;;;;;;19.26;63.45;102120.41;5088777;28;1600;-38
2021/11/15 10:14:27;;;;;;;;;;;;;;;19.29;63.96;102127.38;5083137;28;1914;-38
2021/11/15 10:17:01;;;;;;;;;;;;;;;19.13;62.75;102119.53;5078915;28;1529;-38
2021/11/15 10:22:11;;;;;;;;;;;;;;;19.63;62.29;102117.03;5085996;28;2308;-38
2021/11/15 10:24:42;;;;;;;;;;;;;;;19.51;63.79;102124.09;5082696;28;1635;-37
2021/11/15 10:27:24;;;;;;;;;;;;;;;19.27;63.83;102129.31;5082870;28;1549;-38
2021/11/15 10:29:58;;;;;;;;;;;;;;;19.55;63.32;102120.22;5083483;28;1482;-38
2021/11/15 10:32:31;;;;;;;;;;;;;;;19.77;62.19;102132.19;5080537;28;1577;-38
2021/11/15 10:35:02;;;;;;;;;;;;;;;19.55;63.47;102120.22;5085909;28;1982;-37
2021/11/15 10:37:29;;;;;;;;;;;;;;;19.28;63.86;102131.06;5082609;28;1657;-38
2021/11/15 10:42:39;;;;;;;;;;;;;;;19.69;62.96;102127.31;5083833;28;2874;-38
2021/11/15 10:45:08;;;;;;;;;;;;;;;19.45;62.98;102125.38;5081510;28;1513;-38
2021/11/15 10:47:40;;;;;;;;;;;;;;;19.30;63.38;102121.06;5084362;28;1461;-38
2021/11/15 10:50:23;;;;;;;;;;;;;;;19.76;63.08;102117.06;5083175;28;1529;-38
2021/11/15 10:53:05;;;;;;;;;;;;;;;19.52;63.20;102127.63;5083274;28;1490;-38
2021/11/15 10:55:34;;;;;;;;;;;;;;;19.13;64.33;102130.25;5084948;28;1906;-38
2021/11/15 10:58:00;;;;;;;;;;;;;;;19.43;63.71;102121.09;5084965;28;1461;-38
2021/11/15 11:00:38;;;;;;;;;;;;;;;19.48;63.48;102114.44;5081993;28;2143;-38
2021/11/15 11:03:22;;;;;;;;;;;;;;;19.28;63.12;102109.59;5088176;28;1672;-38
2021/11/15 11:05:50;;;;;;;;;;;;;;;19.16;62.93;102123.81;5081799;28;2051;-38
2021/11/15 11:11:25;;;;;;;;;;;;;;;19.56;62.58;102121.13;5078313;28;2285;-39
2021/11/15 11:13:55;;;;;;;;;;;;;;;19.28;63.33;102117.66;5079226;28;1627;-39
2021/11/15 11:16:36;;;;;;;;;;;;;;;19.40;63.12;102105.22;5085508;28;1901;-39
2021/11/15 11:19:18;;;;;;;;;;;;;;;19.77;62.38;102135.72;5083266;28;1578;-39
2021/11/15 11:27:16;;;;;;;;;;;;;;;19.72;63.70;102118.25;5083369;28;2021;-38
2021/11/15 11:29:46;;;;;;;;;;;;;;;20.04;62.36;102121.34;5086593;28;1605;-38
2021/11/15 11:32:16;;;;;;;;;;;;;;;19.65;64.65;102131.19;5090389;28;1602;-38
2021/11/15 11:34:45;;;;;;;;;;;;;;;19.29;66.08;102127.38;5088856;28;1426;-38
2021/11/15 11:37:21;;;;;;;;;;;;;;;19.61;66.07;102135.91;5084658;28;1995;-38
2021/11/15 11:39:48;;;;;;;;;;;;;;;19.83;64.81;102123.72;5089192;28;2033;-39
2021/11/15 11:44:56;;;;;;;;;;;;;;;19.30;65.55;102131.81;5087988;28;2354;-38
2021/11/15 11:47:27;;;;;;;;;;;;;;;19.45;64.33;102136.09;5088307;28;1578;-38
2021/11/15 11:49:59;;;;;;;;;;;;;;;19.85;64.41;102136.03;5088865;28;1574;-38
2021/11/15 11:52:29;;;;;;;;;;;;;;;19.97;62.96;102120.06;5086676;28;1599;-38
2021/11/15 11:54:55;;;;;;;;;;;;;;;19.47;63.24;102127.97;5088719;28;1972;-38
2021/11/15 11:57:23;;;;;;;;;;;;;;;19.35;64.15;102118.91;5089064;28;1605;-38
2021/11/15 12:00:01;;;;;;;;;;;;;;;19.56;64.98;102110.38;5082490;28;1556;-38
2021/11/15 12:02:33;;;;;;;;;;;;;;;19.27;66.01;102137.38;5088180;28;1821;-38
2021/11/15 12:05:03;;;;;;;;;;;;;;;19.05;65.64;102128.06;5090389;28;1578;-38
2021/11/15 12:07:32;;;;;;;;;;;;;;;19.26;64.75;102119.56;5089875;28;1767;-38
2021/11/15 12:10:01;;;;;;;;;;;;;;;19.36;65.66;102120.66;5093566;28;1899;-38
2021/11/15 12:12:46;;;;;;;;;;;;;;;19.05;65.62;102109.31;5082334;28;1509;-38
2021/11/15 12:15:30;;;;;;;;;;;;;;;18.99;66.62;102120.44;5076941;28;1909;-38
2021/11/15 12:18:07;;;;;;;;;;;;;;;19.36;64.48;102117.97;5088723;28;1799;-38
2021/11/15 12:20:57;;;;;;;;;;;;;;;19.29;65.65;102122.03;5090127;28;1477;-38
2021/11/15 12:23:23;;;;;;;;;;;;;;;19.10;65.36;102113.50;5089379;28;2578;-38
2021/11/15 12:26:01;;;;;;;;;;;;;;;19.25;65.69;102117.84;5089144;28;1659;-39
2021/11/15 12:28:37;;;;;;;;;;;;;;;19.44;64.22;102101.34;5077716;28;1590;-38
2021/11/15 12:31:06;;;;;;;;;;;;;;;19.11;66.14;102105.38;5084094;28;1642;-38
2021/11/15 12:33:33;;;;;;;;;;;;;;;18.92;65.85;102103.06;5090957;28;1576;-38
2021/11/15 12:36:08;;;;;;;;;;;;;;;19.27;65.66;102116.75;5088754;28;1902;-38
2021/11/15 12:38:39;;;;;;;;;;;;;;;19.26;65.72;102109.69;5083301;28;1442;-38
2021/11/15 12:41:39;;;;;;;;;;;;;;;19.07;65.43;102111.91;5083719;28;2822;-38
2021/11/15 12:44:17;;;;;;;;;;;;;;;19.06;66.08;102112.88;5080916;28;1620;-38
2021/11/15 12:46:47;;;;;;;;;;;;;;;19.29;64.86;102116.66;5081521;28;1720;-38
2021/11/15 12:49:19;;;;;;;;;;;;;;;19.12;65.68;102114.25;5083473;28;1683;-38
2021/11/15 12:51:50;;;;;;;;;;;;;;;18.96;65.26;102123.34;5092072;28;1722;-38
2021/11/15 12:54:17;;;;;;;;;;;;;;;19.18;65.10;102116.53;5092656;28;1098;-38
2021/11/15 12:56:53;;;;;;;;;;;;;;;19.41;64.30;102098.88;5089234;28;1930;-38
2021/11/15 12:59:20;;;;;;;;;;;;;;;19.06;65.00;102105.69;5084306;28;1669;-38
2021/11/15 13:01:50;;;;;;;;;;;;;;;18.89;65.80;102119.34;5080520;28;1854;-38
2021/11/15 13:04:19;;;;;;;;;;;;;;;19.19;65.65;102116.44;5078043;28;1553;-38
2021/11/15 13:06:45;;;;;;;;;;;;;;;19.25;64.36;102124.06;5083372;28;1746;-38
2021/11/15 13:09:16;;;;;;;;;;;;;;;19.05;64.93;102121.88;5092261;28;1686;-38
2021/11/15 13:11:46;;;;;;;;;;;;;;;18.92;66.48;102123.63;5084924;28;1612;-38
2021/11/15 13:14:15;;;;;;;;;;;;;;;19.20;65.21;102119.97;5092299;28;1703;-38
2021/11/15 13:16:44;;;;;;;;;;;;;;;19.19;65.51;102115.56;5090423;28;1913;-38
2021/11/15 13:19:14;;;;;;;;;;;;;;;19.03;64.98;102113.91;5074500;28;1921;-38
2021/11/15 13:21:44;;;;;;;;;;;;;;;19.04;65.56;102115.66;5082071;28;1549;-39
2021/11/15 13:24:13;;;;;;;;;;;;;;;19.35;64.99;102101.97;5083289;28;1552;-39
2021/11/15 13:26:50;;;;;;;;;;;;;;;19.20;65.05;102114.59;5091275;28;1535;-38
2021/11/15 13:31:59;;;;;;;;;;;;;;;18.90;66.06;102125.56;5086629;28;2042;-38